sensor_id;sensor_type;location;lat;lon;timestamp;P1;durP1;ratioP1;P2;durP2;ratioP2
14094;SDS011;18096;48.142;16.290;2023-11-21T00:02:19;6.03;;;1.30;;
14094;SDS011;18096;48.142;16.290;2023-11-21T00:04:45;2.60;;;1.10;;
14094;SDS011;18096;48.142;16.290;2023-11-21T00:07:13;2.88;;;1.00;;
14094;SDS011;18096;48.142;16.290;2023-11-21T00:09:39;1.23;;;1.10;;
14094;SDS011;18096;48.142;16.290;2023-11-21T00:12:06;2.50;;;1.20;;
14094;SDS011;18096;48.142;16.290;2023-11-21T00:14:34;2.75;;;1.77;;
14094;SDS011;18096;48.142;16.290;2023-11-21T00:17:03;1.50;;;1.40;;
14094;SDS011;18096;48.142;16.290;2023-11-21T00:19:30;3.60;;;1.10;;
14094;SDS011;18096;48.142;16.290;2023-11-21T00:21:56;1.40;;;0.82;;
14094;SDS011;18096;48.142;16.290;2023-11-21T00:24:23;4.15;;;1.40;;
14094;SDS011;18096;48.142;16.290;2023-11-21T00:26:50;6.85;;;1.40;;
14094;SDS011;18096;48.142;16.290;2023-11-21T00:29:16;2.70;;;1.55;;
14094;SDS011;18096;48.142;16.290;2023-11-21T00:31:43;4.00;;;1.20;;
14094;SDS011;18096;48.142;16.290;2023-11-21T00:34:10;4.80;;;1.30;;
14094;SDS011;18096;48.142;16.290;2023-11-21T00:36:37;1.23;;;1.10;;
14094;SDS011;18096;48.142;16.290;2023-11-21T00:39:03;1.50;;;1.20;;
14094;SDS011;18096;48.142;16.290;2023-11-21T00:41:30;7.50;;;1.30;;
14094;SDS011;18096;48.142;16.290;2023-11-21T00:43:56;6.20;;;1.60;;
14094;SDS011;18096;48.142;16.290;2023-11-21T00:46:22;5.20;;;1.50;;
14094;SDS011;18096;48.142;16.290;2023-11-21T00:48:49;6.22;;;1.80;;
14094;SDS011;18096;48.142;16.290;2023-11-21T00:51:14;2.72;;;1.05;;
14094;SDS011;18096;48.142;16.290;2023-11-21T00:53:40;2.37;;;1.13;;
14094;SDS011;18096;48.142;16.290;2023-11-21T00:56:06;3.25;;;1.13;;
14094;SDS011;18096;48.142;16.290;2023-11-21T00:58:33;3.00;;;1.30;;
14094;SDS011;18096;48.142;16.290;2023-11-21T01:00:59;2.77;;;1.03;;
14094;SDS011;18096;48.142;16.290;2023-11-21T01:03:24;1.65;;;1.10;;
14094;SDS011;18096;48.142;16.290;2023-11-21T01:05:50;10.30;;;1.50;;
14094;SDS011;18096;48.142;16.290;2023-11-21T01:08:16;2.90;;;1.27;;
14094;SDS011;18096;48.142;16.290;2023-11-21T01:10:41;7.40;;;1.10;;
14094;SDS011;18096;48.142;16.290;2023-11-21T01:13:07;2.50;;;0.90;;
14094;SDS011;18096;48.142;16.290;2023-11-21T01:15:33;3.80;;;1.00;;
14094;SDS011;18096;48.142;16.290;2023-11-21T01:17:59;3.60;;;1.00;;
14094;SDS011;18096;48.142;16.290;2023-11-21T01:20:24;1.20;;;0.93;;
14094;SDS011;18096;48.142;16.290;2023-11-21T01:22:51;3.42;;;1.30;;
14094;SDS011;18096;48.142;16.290;2023-11-21T01:25:18;1.35;;;1.00;;
14094;SDS011;18096;48.142;16.290;2023-11-21T01:27:44;1.87;;;1.10;;
14094;SDS011;18096;48.142;16.290;2023-11-21T01:30:10;2.83;;;0.93;;
14094;SDS011;18096;48.142;16.290;2023-11-21T01:32:36;1.90;;;1.00;;
14094;SDS011;18096;48.142;16.290;2023-11-21T01:35:02;3.50;;;1.20;;
14094;SDS011;18096;48.142;16.290;2023-11-21T01:37:30;1.90;;;1.00;;
14094;SDS011;18096;48.142;16.290;2023-11-21T01:39:56;7.50;;;1.10;;
14094;SDS011;18096;48.142;16.290;2023-11-21T01:42:21;3.92;;;1.20;;
14094;SDS011;18096;48.142;16.290;2023-11-21T01:44:47;3.10;;;1.07;;
14094;SDS011;18096;48.142;16.290;2023-11-21T01:47:13;2.80;;;0.88;;
14094;SDS011;18096;48.142;16.290;2023-11-21T01:49:40;2.55;;;1.20;;
14094;SDS011;18096;48.142;16.290;2023-11-21T01:52:09;1.50;;;1.30;;
14094;SDS011;18096;48.142;16.290;2023-11-21T01:54:36;2.80;;;1.48;;
14094;SDS011;18096;48.142;16.290;2023-11-21T01:57:02;2.15;;;1.00;;
14094;SDS011;18096;48.142;16.290;2023-11-21T01:59:35;1.60;;;1.30;;
14094;SDS011;18096;48.142;16.290;2023-11-21T02:02:05;2.90;;;0.70;;
14094;SDS011;18096;48.142;16.290;2023-11-21T02:04:34;5.90;;;0.90;;
14094;SDS011;18096;48.142;16.290;2023-11-21T02:07:04;2.10;;;0.80;;
14094;SDS011;18096;48.142;16.290;2023-11-21T02:09:33;1.40;;;1.30;;
14094;SDS011;18096;48.142;16.290;2023-11-21T02:11:59;3.50;;;1.43;;
14094;SDS011;18096;48.142;16.290;2023-11-21T02:14:26;2.90;;;1.20;;
14094;SDS011;18096;48.142;16.290;2023-11-21T02:16:53;3.10;;;1.00;;
14094;SDS011;18096;48.142;16.290;2023-11-21T02:19:20;3.08;;;1.40;;
14094;SDS011;18096;48.142;16.290;2023-11-21T02:21:49;5.03;;;1.42;;
14094;SDS011;18096;48.142;16.290;2023-11-21T02:24:18;7.30;;;1.50;;
14094;SDS011;18096;48.142;16.290;2023-11-21T02:26:44;2.00;;;0.98;;
14094;SDS011;18096;48.142;16.290;2023-11-21T02:29:11;1.60;;;1.10;;
14094;SDS011;18096;48.142;16.290;2023-11-21T02:31:38;4.03;;;1.27;;
14094;SDS011;18096;48.142;16.290;2023-11-21T02:34:12;2.03;;;1.08;;
14094;SDS011;18096;48.142;16.290;2023-11-21T02:36:42;3.50;;;1.30;;
14094;SDS011;18096;48.142;16.290;2023-11-21T02:39:10;0.82;;;0.80;;
14094;SDS011;18096;48.142;16.290;2023-11-21T02:41:37;2.90;;;1.40;;
14094;SDS011;18096;48.142;16.290;2023-11-21T02:44:04;2.75;;;1.20;;
14094;SDS011;18096;48.142;16.290;2023-11-21T02:46:31;5.40;;;1.40;;
14094;SDS011;18096;48.142;16.290;2023-11-21T02:48:58;3.05;;;1.20;;
14094;SDS011;18096;48.142;16.290;2023-11-21T02:51:35;3.20;;;1.17;;
14094;SDS011;18096;48.142;16.290;2023-11-21T02:54:01;2.70;;;1.00;;
14094;SDS011;18096;48.142;16.290;2023-11-21T02:56:30;4.03;;;1.30;;
14094;SDS011;18096;48.142;16.290;2023-11-21T02:58:56;3.30;;;1.30;;
14094;SDS011;18096;48.142;16.290;2023-11-21T03:01:22;2.80;;;1.15;;
14094;SDS011;18096;48.142;16.290;2023-11-21T03:03:49;1.67;;;1.30;;
14094;SDS011;18096;48.142;16.290;2023-11-21T03:06:16;3.03;;;1.30;;
14094;SDS011;18096;48.142;16.290;2023-11-21T03:08:42;11.00;;;1.30;;
14094;SDS011;18096;48.142;16.290;2023-11-21T03:11:08;3.70;;;1.20;;
14094;SDS011;18096;48.142;16.290;2023-11-21T03:13:34;3.10;;;1.10;;
14094;SDS011;18096;48.142;16.290;2023-11-21T03:16:00;7.20;;;1.00;;
14094;SDS011;18096;48.142;16.290;2023-11-21T03:18:25;6.67;;;1.20;;
14094;SDS011;18096;48.142;16.290;2023-11-21T03:20:54;2.20;;;1.10;;
14094;SDS011;18096;48.142;16.290;2023-11-21T03:23:19;1.55;;;1.20;;
14094;SDS011;18096;48.142;16.290;2023-11-21T03:25:45;2.30;;;1.10;;
14094;SDS011;18096;48.142;16.290;2023-11-21T03:28:11;2.50;;;1.10;;
14094;SDS011;18096;48.142;16.290;2023-11-21T03:30:36;7.50;;;1.10;;
14094;SDS011;18096;48.142;16.290;2023-11-21T03:33:02;2.40;;;0.90;;
14094;SDS011;18096;48.142;16.290;2023-11-21T03:35:28;2.30;;;0.85;;
14094;SDS011;18096;48.142;16.290;2023-11-21T03:37:53;3.90;;;0.90;;
14094;SDS011;18096;48.142;16.290;2023-11-21T03:40:19;1.73;;;0.90;;
14094;SDS011;18096;48.142;16.290;2023-11-21T03:42:46;4.40;;;1.33;;
14094;SDS011;18096;48.142;16.290;2023-11-21T03:45:12;2.80;;;0.88;;
14094;SDS011;18096;48.142;16.290;2023-11-21T03:47:38;3.60;;;1.42;;
14094;SDS011;18096;48.142;16.290;2023-11-21T03:50:04;1.90;;;1.10;;
14094;SDS011;18096;48.142;16.290;2023-11-21T03:52:30;5.63;;;1.15;;
14094;SDS011;18096;48.142;16.290;2023-11-21T03:54:56;2.17;;;1.00;;
14094;SDS011;18096;48.142;16.290;2023-11-21T03:57:21;7.50;;;1.23;;
14094;SDS011;18096;48.142;16.290;2023-11-21T03:59:47;1.20;;;1.10;;
14094;SDS011;18096;48.142;16.290;2023-11-21T04:02:12;2.50;;;1.05;;
14094;SDS011;18096;48.142;16.290;2023-11-21T04:04:38;3.17;;;1.30;;
14094;SDS011;18096;48.142;16.290;2023-11-21T04:07:04;2.60;;;1.60;;
14094;SDS011;18096;48.142;16.290;2023-11-21T04:09:30;4.67;;;1.60;;
14094;SDS011;18096;48.142;16.290;2023-11-21T04:11:55;6.68;;;1.30;;
14094;SDS011;18096;48.142;16.290;2023-11-21T04:14:22;1.52;;;1.20;;
14094;SDS011;18096;48.142;16.290;2023-11-21T04:16:47;2.45;;;1.10;;
14094;SDS011;18096;48.142;16.290;2023-11-21T04:19:13;4.90;;;1.15;;
14094;SDS011;18096;48.142;16.290;2023-11-21T04:21:40;3.92;;;1.40;;
14094;SDS011;18096;48.142;16.290;2023-11-21T04:24:06;3.65;;;1.08;;
14094;SDS011;18096;48.142;16.290;2023-11-21T04:26:32;3.60;;;1.48;;
14094;SDS011;18096;48.142;16.290;2023-11-21T04:28:58;2.13;;;1.05;;
14094;SDS011;18096;48.142;16.290;2023-11-21T04:31:24;3.27;;;1.60;;
14094;SDS011;18096;48.142;16.290;2023-11-21T04:33:49;4.80;;;1.10;;
14094;SDS011;18096;48.142;16.290;2023-11-21T04:36:15;3.33;;;1.20;;
14094;SDS011;18096;48.142;16.290;2023-11-21T04:38:40;4.30;;;1.20;;
14094;SDS011;18096;48.142;16.290;2023-11-21T04:41:06;3.90;;;2.00;;
14094;SDS011;18096;48.142;16.290;2023-11-21T04:43:32;17.35;;;1.30;;
14094;SDS011;18096;48.142;16.290;2023-11-21T04:45:58;1.30;;;0.68;;
14094;SDS011;18096;48.142;16.290;2023-11-21T04:48:24;6.18;;;1.30;;
14094;SDS011;18096;48.142;16.290;2023-11-21T04:50:50;4.60;;;1.20;;
14094;SDS011;18096;48.142;16.290;2023-11-21T04:53:16;5.05;;;1.83;;
14094;SDS011;18096;48.142;16.290;2023-11-21T04:55:42;1.33;;;1.10;;
14094;SDS011;18096;48.142;16.290;2023-11-21T04:58:08;4.40;;;1.30;;
14094;SDS011;18096;48.142;16.290;2023-11-21T05:00:35;4.55;;;1.10;;
14094;SDS011;18096;48.142;16.290;2023-11-21T05:03:01;4.50;;;1.70;;
14094;SDS011;18096;48.142;16.290;2023-11-21T05:05:28;3.78;;;0.85;;
14094;SDS011;18096;48.142;16.290;2023-11-21T05:07:54;2.10;;;1.05;;
14094;SDS011;18096;48.142;16.290;2023-11-21T05:10:20;2.27;;;1.20;;
14094;SDS011;18096;48.142;16.290;2023-11-21T05:12:47;1.90;;;1.00;;
14094;SDS011;18096;48.142;16.290;2023-11-21T05:15:15;2.85;;;1.25;;
14094;SDS011;18096;48.142;16.290;2023-11-21T05:17:42;3.08;;;1.15;;
14094;SDS011;18096;48.142;16.290;2023-11-21T05:20:12;2.50;;;1.77;;
14094;SDS011;18096;48.142;16.290;2023-11-21T05:22:39;2.58;;;1.38;;
14094;SDS011;18096;48.142;16.290;2023-11-21T05:25:05;5.35;;;1.15;;
14094;SDS011;18096;48.142;16.290;2023-11-21T05:27:33;5.20;;;1.40;;
14094;SDS011;18096;48.142;16.290;2023-11-21T05:29:59;1.20;;;0.90;;
14094;SDS011;18096;48.142;16.290;2023-11-21T05:32:30;5.53;;;0.98;;
14094;SDS011;18096;48.142;16.290;2023-11-21T05:34:56;1.70;;;1.10;;
14094;SDS011;18096;48.142;16.290;2023-11-21T05:37:22;10.50;;;1.95;;
14094;SDS011;18096;48.142;16.290;2023-11-21T05:39:48;7.00;;;1.40;;
14094;SDS011;18096;48.142;16.290;2023-11-21T05:42:14;3.63;;;1.30;;
14094;SDS011;18096;48.142;16.290;2023-11-21T05:44:43;5.90;;;1.30;;
14094;SDS011;18096;48.142;16.290;2023-11-21T05:47:08;2.10;;;1.30;;
14094;SDS011;18096;48.142;16.290;2023-11-21T05:49:34;1.20;;;1.10;;
14094;SDS011;18096;48.142;16.290;2023-11-21T05:52:00;7.90;;;1.10;;
14094;SDS011;18096;48.142;16.290;2023-11-21T05:54:26;3.97;;;1.60;;
14094;SDS011;18096;48.142;16.290;2023-11-21T05:56:52;1.47;;;0.97;;
14094;SDS011;18096;48.142;16.290;2023-11-21T05:59:17;4.47;;;1.40;;
14094;SDS011;18096;48.142;16.290;2023-11-21T06:01:43;2.53;;;1.60;;
14094;SDS011;18096;48.142;16.290;2023-11-21T06:04:10;6.22;;;1.88;;
14094;SDS011;18096;48.142;16.290;2023-11-21T06:06:37;5.40;;;1.60;;
14094;SDS011;18096;48.142;16.290;2023-11-21T06:09:04;4.63;;;1.42;;
14094;SDS011;18096;48.142;16.290;2023-11-21T06:11:31;2.80;;;1.70;;
14094;SDS011;18096;48.142;16.290;2023-11-21T06:13:57;6.30;;;1.92;;
14094;SDS011;18096;48.142;16.290;2023-11-21T06:16:23;3.70;;;1.92;;
14094;SDS011;18096;48.142;16.290;2023-11-21T06:18:49;3.07;;;2.00;;
14094;SDS011;18096;48.142;16.290;2023-11-21T06:21:15;7.13;;;2.00;;
14094;SDS011;18096;48.142;16.290;2023-11-21T06:23:42;2.50;;;1.67;;
14094;SDS011;18096;48.142;16.290;2023-11-21T06:26:07;3.33;;;1.80;;
14094;SDS011;18096;48.142;16.290;2023-11-21T06:28:34;1.98;;;1.45;;
14094;SDS011;18096;48.142;16.290;2023-11-21T06:31:01;4.43;;;2.15;;
14094;SDS011;18096;48.142;16.290;2023-11-21T06:33:30;9.47;;;1.90;;
14094;SDS011;18096;48.142;16.290;2023-11-21T06:35:56;7.40;;;2.35;;
14094;SDS011;18096;48.142;16.290;2023-11-21T06:38:22;3.90;;;1.95;;
14094;SDS011;18096;48.142;16.290;2023-11-21T06:40:48;3.80;;;1.65;;
14094;SDS011;18096;48.142;16.290;2023-11-21T06:43:13;5.20;;;2.33;;
14094;SDS011;18096;48.142;16.290;2023-11-21T06:45:40;4.25;;;1.85;;
14094;SDS011;18096;48.142;16.290;2023-11-21T06:48:06;1.95;;;1.85;;
14094;SDS011;18096;48.142;16.290;2023-11-21T06:50:31;10.43;;;1.90;;
14094;SDS011;18096;48.142;16.290;2023-11-21T06:52:57;6.53;;;1.90;;
14094;SDS011;18096;48.142;16.290;2023-11-21T06:55:23;11.35;;;1.60;;
14094;SDS011;18096;48.142;16.290;2023-11-21T06:57:48;2.63;;;1.70;;
14094;SDS011;18096;48.142;16.290;2023-11-21T07:00:15;4.30;;;1.85;;
14094;SDS011;18096;48.142;16.290;2023-11-21T07:02:42;6.80;;;2.90;;
14094;SDS011;18096;48.142;16.290;2023-11-21T07:05:08;6.23;;;1.87;;
14094;SDS011;18096;48.142;16.290;2023-11-21T07:07:34;7.93;;;2.40;;
14094;SDS011;18096;48.142;16.290;2023-11-21T07:10:00;8.40;;;2.60;;
14094;SDS011;18096;48.142;16.290;2023-11-21T07:12:28;4.72;;;1.88;;
14094;SDS011;18096;48.142;16.290;2023-11-21T07:14:55;3.08;;;1.88;;
14094;SDS011;18096;48.142;16.290;2023-11-21T07:17:20;6.75;;;2.03;;
14094;SDS011;18096;48.142;16.290;2023-11-21T07:19:48;2.35;;;2.15;;
14094;SDS011;18096;48.142;16.290;2023-11-21T07:22:16;5.60;;;2.00;;
14094;SDS011;18096;48.142;16.290;2023-11-21T07:24:49;10.20;;;2.70;;
14094;SDS011;18096;48.142;16.290;2023-11-21T07:27:15;6.35;;;1.90;;
14094;SDS011;18096;48.142;16.290;2023-11-21T07:29:41;5.40;;;2.10;;
14094;SDS011;18096;48.142;16.290;2023-11-21T07:32:07;4.93;;;1.90;;
14094;SDS011;18096;48.142;16.290;2023-11-21T07:34:34;5.83;;;2.00;;
14094;SDS011;18096;48.142;16.290;2023-11-21T07:37:01;2.90;;;2.20;;
14094;SDS011;18096;48.142;16.290;2023-11-21T07:39:26;4.25;;;2.10;;
14094;SDS011;18096;48.142;16.290;2023-11-21T07:41:52;2.58;;;1.73;;
14094;SDS011;18096;48.142;16.290;2023-11-21T07:44:18;4.43;;;1.50;;
14094;SDS011;18096;48.142;16.290;2023-11-21T07:46:45;3.35;;;1.60;;
14094;SDS011;18096;48.142;16.290;2023-11-21T07:49:11;5.10;;;1.60;;
14094;SDS011;18096;48.142;16.290;2023-11-21T07:51:39;3.28;;;1.30;;
14094;SDS011;18096;48.142;16.290;2023-11-21T07:54:05;2.70;;;1.70;;
14094;SDS011;18096;48.142;16.290;2023-11-21T07:56:31;5.40;;;1.30;;
14094;SDS011;18096;48.142;16.290;2023-11-21T07:58:57;2.50;;;1.60;;
14094;SDS011;18096;48.142;16.290;2023-11-21T08:01:22;4.95;;;1.60;;
14094;SDS011;18096;48.142;16.290;2023-11-21T08:03:48;4.57;;;1.87;;
14094;SDS011;18096;48.142;16.290;2023-11-21T08:06:17;3.00;;;1.33;;
14094;SDS011;18096;48.142;16.290;2023-11-21T08:08:43;2.40;;;1.03;;
14094;SDS011;18096;48.142;16.290;2023-11-21T08:11:08;6.50;;;1.40;;
14094;SDS011;18096;48.142;16.290;2023-11-21T08:13:35;7.05;;;1.10;;
14094;SDS011;18096;48.142;16.290;2023-11-21T08:16:01;4.63;;;1.13;;
14094;SDS011;18096;48.142;16.290;2023-11-21T08:18:29;6.90;;;1.40;;
14094;SDS011;18096;48.142;16.290;2023-11-21T08:20:55;3.50;;;1.17;;
14094;SDS011;18096;48.142;16.290;2023-11-21T08:23:21;4.07;;;1.35;;
14094;SDS011;18096;48.142;16.290;2023-11-21T08:25:50;3.00;;;1.30;;
14094;SDS011;18096;48.142;16.290;2023-11-21T08:28:16;4.78;;;0.93;;
14094;SDS011;18096;48.142;16.290;2023-11-21T08:30:43;3.05;;;0.90;;
14094;SDS011;18096;48.142;16.290;2023-11-21T08:33:09;2.40;;;1.70;;
14094;SDS011;18096;48.142;16.290;2023-11-21T08:35:36;3.03;;;1.48;;
14094;SDS011;18096;48.142;16.290;2023-11-21T08:38:02;4.47;;;2.10;;
14094;SDS011;18096;48.142;16.290;2023-11-21T08:40:28;4.40;;;2.03;;
14094;SDS011;18096;48.142;16.290;2023-11-21T08:42:54;2.70;;;1.40;;
14094;SDS011;18096;48.142;16.290;2023-11-21T08:45:21;4.78;;;1.13;;
14094;SDS011;18096;48.142;16.290;2023-11-21T08:47:47;8.75;;;1.80;;
14094;SDS011;18096;48.142;16.290;2023-11-21T08:50:13;2.97;;;1.35;;
14094;SDS011;18096;48.142;16.290;2023-11-21T08:52:40;6.90;;;1.48;;
14094;SDS011;18096;48.142;16.290;2023-11-21T08:55:06;1.95;;;1.35;;
14094;SDS011;18096;48.142;16.290;2023-11-21T08:57:37;3.35;;;1.00;;
14094;SDS011;18096;48.142;16.290;2023-11-21T09:00:04;4.50;;;1.23;;
14094;SDS011;18096;48.142;16.290;2023-11-21T09:02:37;1.88;;;0.90;;
14094;SDS011;18096;48.142;16.290;2023-11-21T09:05:04;4.30;;;1.60;;
14094;SDS011;18096;48.142;16.290;2023-11-21T09:07:30;2.90;;;1.30;;
14094;SDS011;18096;48.142;16.290;2023-11-21T09:09:56;4.90;;;1.00;;
14094;SDS011;18096;48.142;16.290;2023-11-21T09:12:22;2.63;;;0.95;;
14094;SDS011;18096;48.142;16.290;2023-11-21T09:14:49;1.58;;;1.00;;
14094;SDS011;18096;48.142;16.290;2023-11-21T09:17:16;4.20;;;0.98;;
14094;SDS011;18096;48.142;16.290;2023-11-21T09:19:41;3.17;;;1.17;;
14094;SDS011;18096;48.142;16.290;2023-11-21T09:22:10;2.40;;;1.00;;
14094;SDS011;18096;48.142;16.290;2023-11-21T09:24:36;1.55;;;0.63;;
14094;SDS011;18096;48.142;16.290;2023-11-21T09:27:02;3.30;;;0.90;;
14094;SDS011;18096;48.142;16.290;2023-11-21T09:29:28;1.30;;;0.80;;
14094;SDS011;18096;48.142;16.290;2023-11-21T09:31:54;0.80;;;0.80;;
14094;SDS011;18096;48.142;16.290;2023-11-21T09:34:21;3.30;;;0.90;;
14094;SDS011;18096;48.142;16.290;2023-11-21T09:36:47;0.88;;;0.60;;
14094;SDS011;18096;48.142;16.290;2023-11-21T09:39:13;3.60;;;0.82;;
14094;SDS011;18096;48.142;16.290;2023-11-21T09:44:09;1.60;;;1.02;;
14094;SDS011;18096;48.142;16.290;2023-11-21T09:46:42;1.70;;;0.70;;
14094;SDS011;18096;48.142;16.290;2023-11-21T09:49:11;0.60;;;0.60;;
14094;SDS011;18096;48.142;16.290;2023-11-21T09:51:42;0.93;;;0.93;;
14094;SDS011;18096;48.142;16.290;2023-11-21T09:54:08;1.50;;;0.70;;
14094;SDS011;18096;48.142;16.290;2023-11-21T09:56:37;1.97;;;1.47;;
14094;SDS011;18096;48.142;16.290;2023-11-21T09:59:03;1.20;;;0.90;;
14094;SDS011;18096;48.142;16.290;2023-11-21T10:01:32;0.80;;;0.67;;
14094;SDS011;18096;48.142;16.290;2023-11-21T10:04:00;2.30;;;0.80;;
14094;SDS011;18096;48.142;16.290;2023-11-21T10:06:26;0.60;;;0.60;;
14094;SDS011;18096;48.142;16.290;2023-11-21T10:08:54;11.97;;;1.37;;
14094;SDS011;18096;48.142;16.290;2023-11-21T10:11:22;3.30;;;0.80;;
14094;SDS011;18096;48.142;16.290;2023-11-21T10:13:52;4.50;;;1.50;;
14094;SDS011;18096;48.142;16.290;2023-11-21T10:16:19;0.77;;;0.77;;
14094;SDS011;18096;48.142;16.290;2023-11-21T10:18:51;2.30;;;1.07;;
14094;SDS011;18096;48.142;16.290;2023-11-21T10:21:20;1.63;;;0.87;;
14094;SDS011;18096;48.142;16.290;2023-11-21T10:23:46;4.10;;;0.83;;
14094;SDS011;18096;48.142;16.290;2023-11-21T10:26:12;1.23;;;0.80;;
14094;SDS011;18096;48.142;16.290;2023-11-21T10:28:55;3.43;;;1.00;;
14094;SDS011;18096;48.142;16.290;2023-11-21T10:31:23;3.73;;;1.13;;
14094;SDS011;18096;48.142;16.290;2023-11-21T10:33:51;1.10;;;1.10;;
14094;SDS011;18096;48.142;16.290;2023-11-21T10:36:24;1.43;;;1.33;;
14094;SDS011;18096;48.142;16.290;2023-11-21T10:38:52;4.20;;;1.33;;
14094;SDS011;18096;48.142;16.290;2023-11-21T10:41:19;4.53;;;0.97;;
14094;SDS011;18096;48.142;16.290;2023-11-21T10:43:48;2.87;;;1.00;;
14094;SDS011;18096;48.142;16.290;2023-11-21T10:46:14;0.70;;;0.70;;
14094;SDS011;18096;48.142;16.290;2023-11-21T10:48:43;1.13;;;0.83;;
14094;SDS011;18096;48.142;16.290;2023-11-21T10:51:10;3.23;;;1.17;;
14094;SDS011;18096;48.142;16.290;2023-11-21T10:53:39;4.33;;;1.10;;
14094;SDS011;18096;48.142;16.290;2023-11-21T10:56:07;7.80;;;1.10;;
14094;SDS011;18096;48.142;16.290;2023-11-21T10:58:42;0.90;;;0.90;;
14094;SDS011;18096;48.142;16.290;2023-11-21T11:01:08;1.67;;;1.40;;
14094;SDS011;18096;48.142;16.290;2023-11-21T11:03:39;0.50;;;0.50;;
14094;SDS011;18096;48.142;16.290;2023-11-21T11:06:06;3.63;;;1.20;;
14094;SDS011;18096;48.142;16.290;2023-11-21T11:08:36;3.40;;;0.73;;
14094;SDS011;18096;48.142;16.290;2023-11-21T11:11:04;5.90;;;0.67;;
14094;SDS011;18096;48.142;16.290;2023-11-21T11:13:34;0.70;;;0.70;;
14094;SDS011;18096;48.142;16.290;2023-11-21T11:16:01;0.70;;;0.70;;
14094;SDS011;18096;48.142;16.290;2023-11-21T11:18:27;1.90;;;1.27;;
14094;SDS011;18096;48.142;16.290;2023-11-21T11:20:54;2.33;;;0.60;;
14094;SDS011;18096;48.142;16.290;2023-11-21T11:23:49;1.40;;;0.63;;
14094;SDS011;18096;48.142;16.290;2023-11-21T11:32:19;1.47;;;0.50;;
14094;SDS011;18096;48.142;16.290;2023-11-21T11:34:52;0.93;;;0.80;;
14094;SDS011;18096;48.142;16.290;2023-11-21T11:37:25;0.83;;;0.83;;
14094;SDS011;18096;48.142;16.290;2023-11-21T11:39:51;0.93;;;0.50;;
14094;SDS011;18096;48.142;16.290;2023-11-21T11:42:19;3.00;;;0.67;;
14094;SDS011;18096;48.142;16.290;2023-11-21T11:44:48;1.17;;;1.17;;
14094;SDS011;18096;48.142;16.290;2023-11-21T11:47:16;1.80;;;0.87;;
14094;SDS011;18096;48.142;16.290;2023-11-21T11:52:45;0.80;;;0.80;;
14094;SDS011;18096;48.142;16.290;2023-11-21T11:55:15;1.80;;;0.70;;
14094;SDS011;18096;48.142;16.290;2023-11-21T11:57:44;0.50;;;0.50;;
14094;SDS011;18096;48.142;16.290;2023-11-21T12:00:15;1.37;;;0.77;;
14094;SDS011;18096;48.142;16.290;2023-11-21T12:03:08;3.40;;;0.70;;
14094;SDS011;18096;48.142;16.290;2023-11-21T12:05:35;2.30;;;0.97;;
14094;SDS011;18096;48.142;16.290;2023-11-21T12:08:03;1.10;;;1.03;;
14094;SDS011;18096;48.142;16.290;2023-11-21T12:10:31;2.00;;;0.70;;
14094;SDS011;18096;48.142;16.290;2023-11-21T12:13:03;0.73;;;0.73;;
14094;SDS011;18096;48.142;16.290;2023-11-21T12:15:30;2.77;;;1.00;;
14094;SDS011;18096;48.142;16.290;2023-11-21T12:17:56;0.80;;;0.80;;
14094;SDS011;18096;48.142;16.290;2023-11-21T12:20:23;1.33;;;1.00;;
14094;SDS011;18096;48.142;16.290;2023-11-21T12:25:16;1.83;;;0.90;;
14094;SDS011;18096;48.142;16.290;2023-11-21T12:27:46;1.23;;;0.80;;
14094;SDS011;18096;48.142;16.290;2023-11-21T12:30:14;1.77;;;1.00;;
14094;SDS011;18096;48.142;16.290;2023-11-21T12:32:42;0.60;;;0.60;;
14094;SDS011;18096;48.142;16.290;2023-11-21T12:35:09;2.87;;;1.10;;
14094;SDS011;18096;48.142;16.290;2023-11-21T12:37:36;2.20;;;1.50;;
14094;SDS011;18096;48.142;16.290;2023-11-21T12:40:09;1.73;;;1.30;;
14094;SDS011;18096;48.142;16.290;2023-11-21T12:42:39;0.80;;;0.80;;
14094;SDS011;18096;48.142;16.290;2023-11-21T12:45:28;3.13;;;0.80;;
14094;SDS011;18096;48.142;16.290;2023-11-21T12:47:57;0.70;;;0.70;;
14094;SDS011;18096;48.142;16.290;2023-11-21T12:50:33;0.80;;;0.80;;
14094;SDS011;18096;48.142;16.290;2023-11-21T12:55:30;0.70;;;0.70;;
14094;SDS011;18096;48.142;16.290;2023-11-21T12:57:57;0.93;;;0.90;;
14094;SDS011;18096;48.142;16.290;2023-11-21T13:00:32;0.80;;;0.80;;
14094;SDS011;18096;48.142;16.290;2023-11-21T13:03:02;1.90;;;0.80;;
14094;SDS011;18096;48.142;16.290;2023-11-21T13:05:32;0.70;;;0.70;;
14094;SDS011;18096;48.142;16.290;2023-11-21T13:08:03;0.60;;;0.60;;
14094;SDS011;18096;48.142;16.290;2023-11-21T13:10:32;1.13;;;1.00;;
14094;SDS011;18096;48.142;16.290;2023-11-21T13:13:05;1.30;;;0.90;;
14094;SDS011;18096;48.142;16.290;2023-11-21T13:15:35;1.70;;;1.03;;
14094;SDS011;18096;48.142;16.290;2023-11-21T13:18:05;3.57;;;0.87;;
14094;SDS011;18096;48.142;16.290;2023-11-21T13:20:32;0.83;;;0.83;;
14094;SDS011;18096;48.142;16.290;2023-11-21T13:22:59;1.13;;;1.10;;
14094;SDS011;18096;48.142;16.290;2023-11-21T13:25:26;1.63;;;0.90;;
14094;SDS011;18096;48.142;16.290;2023-11-21T13:27:56;1.73;;;1.00;;
14094;SDS011;18096;48.142;16.290;2023-11-21T13:30:24;0.70;;;0.63;;
14094;SDS011;18096;48.142;16.290;2023-11-21T13:32:58;2.63;;;0.60;;
14094;SDS011;18096;48.142;16.290;2023-11-21T13:35:27;0.63;;;0.63;;
14094;SDS011;18096;48.142;16.290;2023-11-21T13:38:17;0.70;;;0.70;;
14094;SDS011;18096;48.142;16.290;2023-11-21T13:40:48;1.53;;;0.70;;
14094;SDS011;18096;48.142;16.290;2023-11-21T13:43:22;0.80;;;0.80;;
14094;SDS011;18096;48.142;16.290;2023-11-21T13:45:50;2.33;;;1.57;;
14094;SDS011;18096;48.142;16.290;2023-11-21T13:48:24;9.13;;;1.53;;
14094;SDS011;18096;48.142;16.290;2023-11-21T13:50:56;1.03;;;1.00;;
14094;SDS011;18096;48.142;16.290;2023-11-21T13:53:35;0.97;;;0.97;;
14094;SDS011;18096;48.142;16.290;2023-11-21T13:56:03;1.27;;;1.20;;
14094;SDS011;18096;48.142;16.290;2023-11-21T13:58:30;1.30;;;1.03;;
14094;SDS011;18096;48.142;16.290;2023-11-21T14:01:14;8.73;;;1.00;;
14094;SDS011;18096;48.142;16.290;2023-11-21T14:03:48;2.70;;;1.20;;
14094;SDS011;18096;48.142;16.290;2023-11-21T14:06:21;1.07;;;0.70;;
14094;SDS011;18096;48.142;16.290;2023-11-21T14:08:52;0.93;;;0.93;;
14094;SDS011;18096;48.142;16.290;2023-11-21T14:11:21;0.80;;;0.80;;
14094;SDS011;18096;48.142;16.290;2023-11-21T14:13:47;25.47;;;1.40;;
14094;SDS011;18096;48.142;16.290;2023-11-21T14:16:13;1.10;;;1.00;;
14094;SDS011;18096;48.142;16.290;2023-11-21T14:18:41;2.80;;;0.80;;
14094;SDS011;18096;48.142;16.290;2023-11-21T14:21:20;1.20;;;1.10;;
14094;SDS011;18096;48.142;16.290;2023-11-21T14:23:46;1.00;;;1.00;;
14094;SDS011;18096;48.142;16.290;2023-11-21T14:26:13;0.80;;;0.80;;
14094;SDS011;18096;48.142;16.290;2023-11-21T14:28:40;0.93;;;0.80;;
14094;SDS011;18096;48.142;16.290;2023-11-21T14:31:07;7.50;;;1.87;;
14094;SDS011;18096;48.142;16.290;2023-11-21T14:33:38;1.00;;;1.00;;
14094;SDS011;18096;48.142;16.290;2023-11-21T14:36:04;0.80;;;0.80;;
14094;SDS011;18096;48.142;16.290;2023-11-21T14:38:33;11.10;;;1.37;;
14094;SDS011;18096;48.142;16.290;2023-11-21T14:40:58;0.90;;;0.90;;
14094;SDS011;18096;48.142;16.290;2023-11-21T14:43:24;1.37;;;1.37;;
14094;SDS011;18096;48.142;16.290;2023-11-21T14:45:51;2.50;;;1.30;;
14094;SDS011;18096;48.142;16.290;2023-11-21T14:48:16;1.90;;;1.47;;
14094;SDS011;18096;48.142;16.290;2023-11-21T14:50:53;1.37;;;1.27;;
14094;SDS011;18096;48.142;16.290;2023-11-21T14:53:39;2.03;;;1.30;;